Startpagina
METAR-TAF:

METAR-TAF

Vliegvelden :

Talara, Peru

breedte: 04-34S, lengte: 081-15W, hoogte: 85 m

Actueel weer

Dit bericht is 10 uur en het 15 minuten geleden gemaakt, om 23:00 UTC
Wind 8 kt uit het zuidwesten
Temperatuur 22°C
Vochtigheid 78%
Druk 1012 hPa
Zicht 10 km of meer
Geheel bewolkt op 3000 ft

METAR: SPYL 202300Z 23008KT 9999 OVC030 22/18 Q1012 RMK BIRD HAZARD RWY 17/35 PP000

Tijdstip: 04:15 (09:15 UTC)

Verwachting

Dit bericht is 16 uur en het 15 minuten geleden gemaakt, om 17:00 UTC
Verwachting geldig van 20 om 18 UTC tot 21 om 18 UTC
Wind 8 kt uit het zuidwesten
Zicht 10 km of meer
geen wolken onder 1500 m en geen cumulonimbus

TAF: SPYL 201700Z 2018/2118 22008KT CAVOK TX18/2019Z TN19/2111Z

Waarnemingen en weersverwachtingen van meer dan 4000 vliegvelden (METAR en TAF).

De beschikbare stations zijn de gele en rode punten op de kaart.

Ga met uw muis naar het station om de naam te zien.

Klik dan om waarnemingen en weersverwachtingen te zien.

kaart wijzigen: klik op de groene knoppen met een zwart kruis om in te zoomen, op de groene knop met een streepje om uit te zoomen of op de groene pijlen voor aangrenzende kaarten.


METAR-TAF: